^^
Datos históricos de la estación: Murcia-Puente Tocinos
Diario Informe para Julio 21, 2019 Unidades:  Ambas    Inglés   Métrico
Diario Semanal Mensual Anual Configurable
  Máximo: Mínimo: Media:
Temperatura: 91 °F /  32.8 °C 76.8 °F /  24.9 °C 83.5 °F /  28.6 °C
Punto de rocio: 69.4 °F /  20.8 °C 55.9 °F /  13.3 °C 62.4 °F /  16.9 °C
Humedad: 70% 32% 50%
Velocidad viento: 15.2mph /  24.5km/h - 7.3mph /  11.8km/h
Racha viento: 27mph /  43.4km/h - -
Viento- - ESE
Presión: 30.1 in /  1019.1 hPa 30 in /  1014.5 hPa -
Precipitación: 0 in /  0.0 mm    
Historical Graphs
 
 
Tabla de datos para Julio 21, 2019
Hora Temperatura Punto de rocio Presión Viento Velocidad viento Racha viento Humedad Intensidad lluvia(por hora) Nubes
00:00 80.1 °F /  26.7 °C 65.5 °F /  18.6 °C 30in /  1015.3hPa NE 5mph /  8.0km/h 7mph /  11.3km/h 61% 0in /  0.0mm CLR
00:05 80.1 °F /  26.7 °C 65.5 °F /  18.6 °C 30in /  1015.2hPa NE 5mph /  8.0km/h 7mph /  11.3km/h 61% 0in /  0.0mm CLR
00:10 80.1 °F /  26.7 °C 65.5 °F /  18.6 °C 30in /  1015.2hPa NE 3mph /  4.8km/h 5mph /  8.0km/h 61% 0in /  0.0mm CLR
00:15 80.1 °F /  26.7 °C 65.5 °F /  18.6 °C 30in /  1015.2hPa NE 3mph /  4.8km/h 3mph /  4.8km/h 61% 0in /  0.0mm CLR
00:20 80.1 °F /  26.7 °C 65.5 °F /  18.6 °C 30in /  1015.3hPa Calm   2mph /  3.2km/h 61% 0in /  0.0mm CLR
00:25 80.1 °F /  26.7 °C 65.5 °F /  18.6 °C 30in /  1015.3hPa Calm     61% 0in /  0.0mm CLR
00:30 79.9 °F /  26.6 °C 65.1 °F /  18.4 °C 30in /  1015.3hPa Calm     61% 0in /  0.0mm CLR
00:35 79.9 °F /  26.6 °C 65.1 °F /  18.4 °C 30in /  1015.3hPa Calm     61% 0in /  0.0mm CLR
00:40 79.9 °F /  26.6 °C 65.1 °F /  18.4 °C 30in /  1015.3hPa Calm     61% 0in /  0.0mm CLR
00:45 79.9 °F /  26.6 °C 65.1 °F /  18.4 °C 30in /  1015.3hPa Calm   5mph /  8.0km/h 61% 0in /  0.0mm CLR
00:50 79.7 °F /  26.5 °C 64.6 °F /  18.1 °C 30in /  1015.3hPa WNW 2mph /  3.2km/h 5mph /  8.0km/h 60% 0in /  0.0mm CLR
00:55 79.7 °F /  26.5 °C 64.6 °F /  18.1 °C 30in /  1015.3hPa WNW 2mph /  3.2km/h 5mph /  8.0km/h 60% 0in /  0.0mm CLR
01:00 79.7 °F /  26.5 °C 64.6 °F /  18.1 °C 30in /  1015.3hPa West 2mph /  3.2km/h 5mph /  8.0km/h 60% 0in /  0.0mm CLR
01:05 79.9 °F /  26.6 °C 64.2 °F /  17.9 °C 30in /  1015.2hPa West 2mph /  3.2km/h 7mph /  11.3km/h 59% 0in /  0.0mm CLR
01:10 79.9 °F /  26.6 °C 64.2 °F /  17.9 °C 30in /  1015.2hPa West 3mph /  4.8km/h 6mph /  9.7km/h 59% 0in /  0.0mm CLR
01:15 80.1 °F /  26.7 °C 64 °F /  17.8 °C 30in /  1015.2hPa West 3mph /  4.8km/h 5mph /  8.0km/h 58% 0in /  0.0mm CLR
01:20 80.1 °F /  26.7 °C 64 °F /  17.8 °C 30in /  1015.2hPa West 2mph /  3.2km/h 3mph /  4.8km/h 58% 0in /  0.0mm CLR
01:25 80.2 °F /  26.8 °C 63.7 °F /  17.6 °C 30in /  1015.2hPa West 2mph /  3.2km/h   57% 0in /  0.0mm CLR
01:30 80.2 °F /  26.8 °C 63.1 °F /  17.3 °C 30in /  1015.2hPa Calm     56% 0in /  0.0mm CLR
01:35 80.4 °F /  26.9 °C 63.9 °F /  17.7 °C 30in /  1015.1hPa Calm     57% 0in /  0.0mm CLR
01:40 80.6 °F /  27.0 °C 64 °F /  17.8 °C 30in /  1015.1hPa Calm     57% 0in /  0.0mm CLR
01:45 80.6 °F /  27.0 °C 64 °F /  17.8 °C 30in /  1015.1hPa Calm   3mph /  4.8km/h 57% 0in /  0.0mm CLR
01:50 80.8 °F /  27.1 °C 64 °F /  17.8 °C 30in /  1015.0hPa SE 2mph /  3.2km/h 5mph /  8.0km/h 57% 0in /  0.0mm CLR
01:55 80.6 °F /  27.0 °C 63.5 °F /  17.5 °C 30in /  1015.0hPa SW 1.8mph /  2.9km/h 5.8mph /  9.3km/h 56% 0in /  0.0mm CLR
02:00 80.8 °F /  27.1 °C 64 °F /  17.8 °C 30in /  1015.0hPa SW 3mph /  4.8km/h 5mph /  8.0km/h 57% 0in /  0.0mm CLR
02:05 80.4 °F /  26.9 °C 63.9 °F /  17.7 °C 30in /  1015.1hPa SSW 3mph /  4.8km/h 5mph /  8.0km/h 57% 0in /  0.0mm CLR
02:10 80.4 °F /  26.9 °C 64.2 °F /  17.9 °C 30in /  1015.1hPa SSW 3.6mph /  5.8km/h 5.8mph /  9.3km/h 58% 0in /  0.0mm CLR
02:15 80.2 °F /  26.8 °C 64 °F /  17.8 °C 30in /  1015.1hPa SSW 3mph /  4.8km/h 6mph /  9.7km/h 58% 0in /  0.0mm CLR
02:20 80.1 °F /  26.7 °C 64 °F /  17.8 °C 30in /  1015.0hPa West 3.6mph /  5.8km/h 6.9mph /  11.1km/h 58% 0in /  0.0mm CLR
02:25 79.9 °F /  26.6 °C 64.2 °F /  17.9 °C 30in /  1015.0hPa SW 3mph /  4.8km/h 9mph /  14.5km/h 59% 0in /  0.0mm CLR
02:30 79.9 °F /  26.6 °C 64.2 °F /  17.9 °C 30in /  1015.0hPa SW 5mph /  8.0km/h 9mph /  14.5km/h 59% 0in /  0.0mm CLR
02:35 79.7 °F /  26.5 °C 64 °F /  17.8 °C 30in /  1015.0hPa SW 5mph /  8.0km/h 7mph /  11.3km/h 59% 0in /  0.0mm CLR
02:40 79.5 °F /  26.4 °C 63.9 °F /  17.7 °C 30in /  1015.0hPa SW 4.7mph /  7.6km/h 6.9mph /  11.1km/h 59% 0in /  0.0mm CLR
02:45 79.3 °F /  26.3 °C 63.9 °F /  17.7 °C 30in /  1015.0hPa SW 5mph /  8.0km/h 7mph /  11.3km/h 59% 0in /  0.0mm CLR
02:50 79.3 °F /  26.3 °C 63.9 °F /  17.7 °C 30in /  1014.9hPa SSW 4mph /  6.4km/h 5.8mph /  9.3km/h 59% 0in /  0.0mm CLR
02:55 79.3 °F /  26.3 °C 63.9 °F /  17.7 °C 30in /  1014.9hPa SW 5mph /  8.0km/h 6mph /  9.7km/h 59% 0in /  0.0mm CLR
03:00 79.3 °F /  26.3 °C 63.9 °F /  17.7 °C 30in /  1014.9hPa SW 5mph /  8.0km/h 6mph /  9.7km/h 59% 0in /  0.0mm CLR
03:05 79.2 °F /  26.2 °C 63.7 °F /  17.6 °C 30in /  1014.8hPa SW 5mph /  8.0km/h 6mph /  9.7km/h 59% 0in /  0.0mm CLR
03:10 79.2 °F /  26.2 °C 63.7 °F /  17.6 °C 30in /  1014.8hPa WSW 4mph /  6.4km/h 5.9mph /  9.5km/h 59% 0in /  0.0mm CLR
03:15 79.2 °F /  26.2 °C 63.1 °F /  17.3 °C 30in /  1014.8hPa SW 5mph /  8.0km/h 7mph /  11.3km/h 58% 0in /  0.0mm CLR
03:20 79.2 °F /  26.2 °C 63.7 °F /  17.6 °C 30in /  1014.8hPa SW 5mph /  8.0km/h 7mph /  11.3km/h 59% 0in /  0.0mm CLR
03:25 79 °F /  26.1 °C 63.9 °F /  17.7 °C 30in /  1014.8hPa SSW 5mph /  8.0km/h 9mph /  14.5km/h 60% 0in /  0.0mm CLR
03:30 78.6 °F /  25.9 °C 63.1 °F /  17.3 °C 30in /  1014.8hPa SSW 5.2mph /  8.4km/h 8.1mph /  13.0km/h 59% 0in /  0.0mm CLR
03:35 78.6 °F /  25.9 °C 63.7 °F /  17.6 °C 30in /  1014.8hPa SSW 5mph /  8.0km/h 9mph /  14.5km/h 60% 0in /  0.0mm CLR
03:39 78.4 °F /  25.8 °C 63 °F /  17.2 °C 30in /  1014.8hPa SW 4.7mph /  7.6km/h 4.6mph /  7.4km/h 59% 0in /  0.0mm CLR
03:45 78.4 °F /  25.8 °C 63 °F /  17.2 °C 30in /  1014.8hPa SW 5mph /  8.0km/h 8mph /  12.9km/h 59% 0in /  0.0mm CLR
03:50 78.4 °F /  25.8 °C 63 °F /  17.2 °C 30in /  1014.7hPa SW 4.3mph /  6.9km/h 8.1mph /  13.0km/h 59% 0in /  0.0mm CLR
03:55 78.3 °F /  25.7 °C 62.8 °F /  17.1 °C 30in /  1014.7hPa SSW 5mph /  8.0km/h 8mph /  12.9km/h 59% 0in /  0.0mm CLR
04:00 78.3 °F /  25.7 °C 62.8 °F /  17.1 °C 30in /  1014.7hPa SSE 3mph /  4.8km/h 5mph /  8.0km/h 59% 0in /  0.0mm CLR
04:05 78.3 °F /  25.7 °C 62.8 °F /  17.1 °C 30in /  1014.8hPa SSE 3mph /  4.8km/h 8mph /  12.9km/h 59% 0in /  0.0mm CLR
04:10 78.1 °F /  25.6 °C 62.6 °F /  17.0 °C 30in /  1014.8hPa SSW 5mph /  8.0km/h 9mph /  14.5km/h 59% 0in /  0.0mm CLR
04:15 78.3 °F /  25.7 °C 62.8 °F /  17.1 °C 30in /  1014.8hPa SSW 4.3mph /  6.9km/h 1.4mph /  2.3km/h 59% 0in /  0.0mm CLR
04:20 78.3 °F /  25.7 °C 62.2 °F /  16.8 °C 30in /  1014.7hPa SSW 3mph /  4.8km/h 7mph /  11.3km/h 58% 0in /  0.0mm CLR
04:25 78.1 °F /  25.6 °C 62.1 °F /  16.7 °C 30in /  1014.7hPa SSW 3mph /  4.8km/h 6mph /  9.7km/h 58% 0in /  0.0mm CLR
04:30 78.1 °F /  25.6 °C 62.1 °F /  16.7 °C 30in /  1014.7hPa South 2mph /  3.2km/h 5mph /  8.0km/h 58% 0in /  0.0mm CLR
04:35 78.1 °F /  25.6 °C 62.6 °F /  17.0 °C 30in /  1014.6hPa South 2mph /  3.2km/h 6mph /  9.7km/h 59% 0in /  0.0mm CLR
04:40 77.9 °F /  25.5 °C 62.4 °F /  16.9 °C 30in /  1014.6hPa SSW 3mph /  4.8km/h 6mph /  9.7km/h 59% 0in /  0.0mm CLR
04:45 77.7 °F /  25.4 °C 62.2 °F /  16.8 °C 30in /  1014.6hPa South 3mph /  4.8km/h 6mph /  9.7km/h 59% 0in /  0.0mm CLR
04:50 77.7 °F /  25.4 °C 62.2 °F /  16.8 °C 30in /  1014.5hPa SSW 2mph /  3.2km/h 5mph /  8.0km/h 59% 0in /  0.0mm CLR
04:55 77.7 °F /  25.4 °C 62.2 °F /  16.8 °C 30in /  1014.5hPa SW 2mph /  3.2km/h 5mph /  8.0km/h 59% 0in /  0.0mm CLR
05:00 77.7 °F /  25.4 °C 62.2 °F /  16.8 °C 30in /  1014.5hPa SW 3mph /  4.8km/h 6mph /  9.7km/h 59% 0in /  0.0mm CLR
05:05 77.7 °F /  25.4 °C 61.9 °F /  16.6 °C 30in /  1014.6hPa SSW 3mph /  4.8km/h 6mph /  9.7km/h 58% 0in /  0.0mm CLR
05:10 77.7 °F /  25.4 °C 62.2 °F /  16.8 °C 30in /  1014.6hPa SSW 5mph /  8.0km/h 7mph /  11.3km/h 59% 0in /  0.0mm CLR
05:15 77.5 °F /  25.3 °C 62.1 °F /  16.7 °C 30in /  1014.6hPa SSW 5mph /  8.0km/h 6mph /  9.7km/h 59% 0in /  0.0mm CLR
05:20 77.5 °F /  25.3 °C 62.1 °F /  16.7 °C 30in /  1014.7hPa SSW 4mph /  6.4km/h 6.9mph /  11.1km/h 59% 0in /  0.0mm CLR
05:25 77.5 °F /  25.3 °C 62.1 °F /  16.7 °C 30in /  1014.7hPa South 5mph /  8.0km/h 8mph /  12.9km/h 59% 0in /  0.0mm CLR
05:30 77.4 °F /  25.2 °C 61.9 °F /  16.6 °C 30in /  1014.7hPa SSW 6mph /  9.7km/h 8mph /  12.9km/h 59% 0in /  0.0mm CLR
05:35 77.4 °F /  25.2 °C 61.9 °F /  16.6 °C 30in /  1014.8hPa SSW 6mph /  9.7km/h 6mph /  9.7km/h 59% 0in /  0.0mm CLR
05:40 77.4 °F /  25.2 °C 62.4 °F /  16.9 °C 30in /  1014.8hPa SSW 5mph /  8.0km/h 7mph /  11.3km/h 60% 0in /  0.0mm CLR
05:45 77.2 °F /  25.1 °C 62.2 °F /  16.8 °C 30in /  1014.8hPa SSW 5mph /  8.0km/h 8mph /  12.9km/h 60% 0in /  0.0mm CLR
05:50 77.4 °F /  25.2 °C 61.9 °F /  16.6 °C 30in /  1014.8hPa SSW 5mph /  8.0km/h 7mph /  11.3km/h 59% 0in /  0.0mm CLR
05:55 77.2 °F /  25.1 °C 61.9 °F /  16.6 °C 30in /  1014.8hPa SSW 5mph /  8.0km/h 7mph /  11.3km/h 59% 0in /  0.0mm CLR
06:00 77.2 °F /  25.1 °C 61.7 °F /  16.5 °C 30in /  1014.8hPa SSW 5mph /  8.0km/h 8mph /  12.9km/h 59% 0in /  0.0mm CLR
06:05 77.2 °F /  25.1 °C 61.7 °F /  16.5 °C 30in /  1014.9hPa SSW 5mph /  8.0km/h 7mph /  11.3km/h 59% 0in /  0.0mm CLR
06:10 77.2 °F /  25.1 °C 62.2 °F /  16.8 °C 30in /  1014.9hPa SSW 5mph /  8.0km/h 7mph /  11.3km/h 60% 0in /  0.0mm CLR
06:15 77.2 °F /  25.1 °C 62.2 °F /  16.8 °C 30in /  1014.9hPa SSW 4.7mph /  7.6km/h 5.8mph /  9.3km/h 60% 0in /  0.0mm CLR
06:20 77.2 °F /  25.1 °C 62.2 °F /  16.8 °C 30in /  1014.8hPa SSW 5mph /  8.0km/h 6mph /  9.7km/h 60% 0in /  0.0mm CLR
06:25 77.2 °F /  25.1 °C 62.1 °F /  16.7 °C 30in /  1014.8hPa SSW 5mph /  8.0km/h 6mph /  9.7km/h 60% 0in /  0.0mm CLR
06:30 77 °F /  25.0 °C 62.1 °F /  16.7 °C 30in /  1014.8hPa SSW 3mph /  4.8km/h 5mph /  8.0km/h 60% 0in /  0.0mm CLR
06:35 77 °F /  25.0 °C 61.5 °F /  16.4 °C 30in /  1014.8hPa SW 3mph /  4.8km/h 5mph /  8.0km/h 59% 0in /  0.0mm CLR
06:40 76.8 °F /  24.9 °C 61.3 °F /  16.3 °C 30in /  1014.8hPa SW 2mph /  3.2km/h 5mph /  8.0km/h 59% 0in /  0.0mm CLR
06:45 76.8 °F /  24.9 °C 61 °F /  16.1 °C 30in /  1014.8hPa SW 2mph /  3.2km/h 6mph /  9.7km/h 58% 0in /  0.0mm CLR
06:50 77 °F /  25.0 °C 61.5 °F /  16.4 °C 30in /  1015.1hPa SSW 5mph /  8.0km/h 8mph /  12.9km/h 59% 0in /  0.0mm CLR
06:55 76.8 °F /  24.9 °C 61 °F /  16.1 °C 30in /  1015.1hPa SSW 5mph /  8.0km/h 10mph /  16.1km/h 58% 0in /  0.0mm CLR
07:00 76.8 °F /  24.9 °C 61 °F /  16.1 °C 30in /  1015.1hPa SSW 6mph /  9.7km/h 7mph /  11.3km/h 58% 0in /  0.0mm CLR
07:05 76.8 °F /  24.9 °C 61 °F /  16.1 °C 30in /  1014.9hPa SSW 6mph /  9.7km/h 6mph /  9.7km/h 58% 0in /  0.0mm CLR
07:10 76.8 °F /  24.9 °C 61 °F /  16.1 °C 30in /  1014.9hPa SSW 5mph /  8.0km/h 7mph /  11.3km/h 58% 0in /  0.0mm CLR
07:15 76.8 °F /  24.9 °C 61 °F /  16.1 °C 30in /  1014.9hPa South 5mph /  8.0km/h 5mph /  8.0km/h 58% 0in /  0.0mm CLR
07:20 76.8 °F /  24.9 °C 61 °F /  16.1 °C 30in /  1014.9hPa SSW 3mph /  4.8km/h 6mph /  9.7km/h 58% 0in /  0.0mm CLR
07:25 77 °F /  25.0 °C 61.2 °F /  16.2 °C 30in /  1014.9hPa SSW 3mph /  4.8km/h 5mph /  8.0km/h 58% 0in /  0.0mm CLR
07:30 76.8 °F /  24.9 °C 60.4 °F /  15.8 °C 30in /  1014.9hPa SSW 2mph /  3.2km/h 5mph /  8.0km/h 57% 0in /  0.0mm CLR
07:35 77 °F /  25.0 °C 60.6 °F /  15.9 °C 30in /  1015.0hPa SSW 2mph /  3.2km/h 6mph /  9.7km/h 57% 0in /  0.0mm CLR
07:40 77.2 °F /  25.1 °C 60.8 °F /  16.0 °C 30in /  1015.0hPa SSW 3mph /  4.8km/h 7mph /  11.3km/h 57% 0in /  0.0mm CLR
07:45 77.4 °F /  25.2 °C 60.8 °F /  16.0 °C 30in /  1015.0hPa SSW 3mph /  4.8km/h 6mph /  9.7km/h 57% 0in /  0.0mm CLR
07:50 77.4 °F /  25.2 °C 61 °F /  16.1 °C 30in /  1015.2hPa SSW 5mph /  8.0km/h 6mph /  9.7km/h 57% 0in /  0.0mm CLR
07:55 77.5 °F /  25.3 °C 60.4 °F /  15.8 °C 30in /  1015.2hPa SSW 5mph /  8.0km/h 7mph /  11.3km/h 56% 0in /  0.0mm CLR
08:00 77.5 °F /  25.3 °C 60.6 °F /  15.9 °C 30in /  1015.2hPa SSW 5mph /  8.0km/h 7mph /  11.3km/h 56% 0in /  0.0mm CLR
08:05 77.5 °F /  25.3 °C 60.6 °F /  15.9 °C 30in /  1015.3hPa SSW 5mph /  8.0km/h 8mph /  12.9km/h 56% 0in /  0.0mm CLR
08:10 77.7 °F /  25.4 °C 60.8 °F /  16.0 °C 30in /  1015.3hPa SSW 5mph /  8.0km/h 9mph /  14.5km/h 56% 0in /  0.0mm CLR
08:14 77.5 °F /  25.3 °C 60.6 °F /  15.9 °C 30in /  1015.3hPa SSW 4.7mph /  7.6km/h 6.9mph /  11.1km/h 56% 0in /  0.0mm CLR
08:20 77.5 °F /  25.3 °C 60.6 °F /  15.9 °C 30in /  1015.6hPa SSW 6mph /  9.7km/h 10mph /  16.1km/h 56% 0in /  0.0mm CLR
08:25 77.5 °F /  25.3 °C 60.6 °F /  15.9 °C 30in /  1015.6hPa SSW 6mph /  9.7km/h 10mph /  16.1km/h 56% 0in /  0.0mm CLR
08:30 77.5 °F /  25.3 °C 60.6 °F /  15.9 °C 30in /  1015.6hPa SW 6mph /  9.7km/h 10mph /  16.1km/h 56% 0in /  0.0mm CLR
08:35 77.7 °F /  25.4 °C 60.8 °F /  16.0 °C 30in /  1015.8hPa SW 6mph /  9.7km/h 11mph /  17.7km/h 56% 0in /  0.0mm CLR
08:40 77.9 °F /  25.5 °C 60.4 °F /  15.8 °C 30in /  1015.8hPa SW 6mph /  9.7km/h 9mph /  14.5km/h 55% 0in /  0.0mm CLR
08:45 78.3 °F /  25.7 °C 60.6 °F /  15.9 °C 30in /  1015.8hPa SW 6mph /  9.7km/h 9mph /  14.5km/h 55% 0in /  0.0mm CLR
08:50 78.3 °F /  25.7 °C 60.8 °F /  16.0 °C 30in /  1015.9hPa WSW 6mph /  9.7km/h 9mph /  14.5km/h 55% 0in /  0.0mm CLR
08:55 78.4 °F /  25.8 °C 61 °F /  16.1 °C 30in /  1015.9hPa WSW 6mph /  9.7km/h 8mph /  12.9km/h 55% 0in /  0.0mm CLR
09:00 78.6 °F /  25.9 °C 61.2 °F /  16.2 °C 30in /  1015.9hPa WSW 5mph /  8.0km/h 9mph /  14.5km/h 55% 0in /  0.0mm CLR
09:05 78.8 °F /  26.0 °C 60.6 °F /  15.9 °C 30in /  1016.0hPa WSW 5mph /  8.0km/h 8mph /  12.9km/h 54% 0in /  0.0mm CLR
09:10 79 °F /  26.1 °C 61 °F /  16.1 °C 30in /  1016.0hPa West 5mph /  8.0km/h 6mph /  9.7km/h 54% 0in /  0.0mm CLR
09:15 79.3 °F /  26.3 °C 60.6 °F /  15.9 °C 30in /  1016.0hPa WSW 5mph /  8.0km/h 7mph /  11.3km/h 53% 0in /  0.0mm CLR
09:20 79.5 °F /  26.4 °C 60.4 °F /  15.8 °C 30in /  1016.1hPa WSW 5mph /  8.0km/h 9mph /  14.5km/h 52% 0in /  0.0mm CLR
09:25 79.9 °F /  26.6 °C 60.1 °F /  15.6 °C 30in /  1016.1hPa SW 5mph /  8.0km/h 9mph /  14.5km/h 51% 0in /  0.0mm CLR
09:30 80.1 °F /  26.7 °C 60.3 °F /  15.7 °C 30in /  1016.1hPa SW 5mph /  8.0km/h 7mph /  11.3km/h 51% 0in /  0.0mm CLR
09:35 80.2 °F /  26.8 °C 60.6 °F /  15.9 °C 30in /  1016.1hPa SW 5mph /  8.0km/h 7mph /  11.3km/h 51% 0in /  0.0mm CLR
09:40 80.4 °F /  26.9 °C 60.3 °F /  15.7 °C 30in /  1016.1hPa WSW 5mph /  8.0km/h 8mph /  12.9km/h 50% 0in /  0.0mm CLR
09:45 80.8 °F /  27.1 °C 60.4 °F /  15.8 °C 30in /  1016.1hPa West 5mph /  8.0km/h 5mph /  8.0km/h 50% 0in /  0.0mm CLR
09:50 81.1 °F /  27.3 °C 60.6 °F /  15.9 °C 30in /  1016.2hPa WSW 3mph /  4.8km/h 6mph /  9.7km/h 50% 0in /  0.0mm CLR
09:55 81.1 °F /  27.3 °C 60.6 °F /  15.9 °C 30in /  1016.2hPa SW 3mph /  4.8km/h 6mph /  9.7km/h 50% 0in /  0.0mm CLR
09:59 81.7 °F /  27.6 °C 60.6 °F /  15.9 °C 30in /  1016.2hPa West 3.1mph /  5.0km/h 5.8mph /  9.3km/h 49% 0in /  0.0mm CLR
10:05 81.9 °F /  27.7 °C 60.8 °F /  16.0 °C 30in /  1016.2hPa WSW 3mph /  4.8km/h 5mph /  8.0km/h 49% 0in /  0.0mm CLR
10:09 82.4 °F /  28.0 °C 60.6 °F /  15.9 °C 30in /  1016.2hPa West 2mph /  3.2km/h 4.6mph /  7.4km/h 48% 0in /  0.0mm CLR
10:15 82.8 °F /  28.2 °C 60.4 °F /  15.8 °C 30in /  1016.2hPa WSW 2mph /  3.2km/h 5mph /  8.0km/h 47% 0in /  0.0mm CLR
10:20 82.9 °F /  28.3 °C 60.6 °F /  15.9 °C 30in /  1016.3hPa West 2mph /  3.2km/h 5mph /  8.0km/h 47% 0in /  0.0mm CLR
10:25 83.8 °F /  28.8 °C 60.8 °F /  16.0 °C 30in /  1016.3hPa NW 2mph /  3.2km/h 5mph /  8.0km/h 46% 0in /  0.0mm CLR
10:30 84.6 °F /  29.2 °C 61 °F /  16.1 °C 30in /  1016.3hPa NNE 2mph /  3.2km/h 5mph /  8.0km/h 45% 0in /  0.0mm CLR
10:35 84.9 °F /  29.4 °C 60.6 °F /  15.9 °C 30in /  1016.3hPa NE 2mph /  3.2km/h 7mph /  11.3km/h 44% 0in /  0.0mm CLR
10:40 85.3 °F /  29.6 °C 61 °F /  16.1 °C 30in /  1016.3hPa ENE 2mph /  3.2km/h 5mph /  8.0km/h 44% 0in /  0.0mm CLR
10:45 85.6 °F /  29.8 °C 62.4 °F /  16.9 °C 30in /  1016.3hPa NE 2mph /  3.2km/h 10mph /  16.1km/h 46% 0in /  0.0mm CLR
10:50 84.9 °F /  29.4 °C 62.4 °F /  16.9 °C 30in /  1016.2hPa NE 5mph /  8.0km/h 10mph /  16.1km/h 47% 0in /  0.0mm CLR
10:55 85.3 °F /  29.6 °C 63.3 °F /  17.4 °C 30in /  1016.2hPa NE 5mph /  8.0km/h 10mph /  16.1km/h 48% 0in /  0.0mm CLR
10:59 85.3 °F /  29.6 °C 64 °F /  17.8 °C 30in /  1016.2hPa NNE 4.7mph /  7.6km/h 12.7mph /  20.4km/h 49% 0in /  0.0mm CLR
11:05 84.9 °F /  29.4 °C 63.7 °F /  17.6 °C 30in /  1016.2hPa NE 5mph /  8.0km/h 14mph /  22.5km/h 49% 0in /  0.0mm CLR
11:10 84.7 °F /  29.3 °C 63.5 °F /  17.5 °C 30in /  1016.2hPa NNE 7mph /  11.3km/h 13mph /  20.9km/h 49% 0in /  0.0mm CLR
11:15 85.3 °F /  29.6 °C 64 °F /  17.8 °C 30in /  1016.2hPa NNE 7mph /  11.3km/h 12mph /  19.3km/h 49% 0in /  0.0mm CLR
11:20 85.6 °F /  29.8 °C 64.9 °F /  18.3 °C 30in /  1016.3hPa NNE 6mph /  9.7km/h 16mph /  25.7km/h 50% 0in /  0.0mm CLR
11:25 85.6 °F /  29.8 °C 64.9 °F /  18.3 °C 30in /  1016.3hPa NE 6mph /  9.7km/h 17mph /  27.4km/h 50% 0in /  0.0mm CLR
11:30 86.2 °F /  30.1 °C 64.8 °F /  18.2 °C 30in /  1016.3hPa NE 9mph /  14.5km/h 17mph /  27.4km/h 49% 0in /  0.0mm CLR
11:35 86.2 °F /  30.1 °C 64.8 °F /  18.2 °C 30in /  1016.3hPa NNE 9mph /  14.5km/h 16mph /  25.7km/h 49% 0in /  0.0mm CLR
11:40 86.2 °F /  30.1 °C 64.8 °F /  18.2 °C 30in /  1016.3hPa NE 10mph /  16.1km/h 16mph /  25.7km/h 49% 0in /  0.0mm CLR
11:45 86.5 °F /  30.3 °C 64.6 °F /  18.1 °C 30in /  1016.3hPa NE 10mph /  16.1km/h 16mph /  25.7km/h 48% 0in /  0.0mm CLR
11:50 87.3 °F /  30.7 °C 63.3 °F /  17.4 °C 30in /  1016.4hPa NE 9mph /  14.5km/h 18mph /  29.0km/h 45% 0in /  0.0mm CLR
11:54 87.4 °F /  30.8 °C 60.8 °F /  16.0 °C 30in /  1016.4hPa NNE 9.2mph /  14.8km/h 24.2mph /  38.9km/h 41% 0in /  0.0mm CLR
11:59 87.8 °F /  31.0 °C 61.2 °F /  16.2 °C 30in /  1016.4hPa East 13mph /  20.9km/h 15mph /  24.1km/h 41% 0in /  0.0mm CLR
12:05 88.2 °F /  31.2 °C 60.8 °F /  16.0 °C 30in /  1016.5hPa NE 13mph /  20.9km/h 20mph /  32.2km/h 40% 0in /  0.0mm CLR
12:09 88.7 °F /  31.5 °C 58.3 °F /  14.6 °C 30in /  1016.5hPa ENE 10.7mph /  17.2km/h 16.1mph /  25.9km/h 36% 0in /  0.0mm CLR
12:15 89.2 °F /  31.8 °C 58.8 °F /  14.9 °C 30in /  1016.5hPa ENE 10mph /  16.1km/h 18mph /  29.0km/h 36% 0in /  0.0mm CLR
12:20 89.8 °F /  32.1 °C 57.7 °F /  14.3 °C 30in /  1016.6hPa NE 12mph /  19.3km/h 22mph /  35.4km/h 34% 0in /  0.0mm CLR
12:25 89.8 °F /  32.1 °C 55.9 °F /  13.3 °C 30in /  1016.6hPa NE 12mph /  19.3km/h 22mph /  35.4km/h 32% 0in /  0.0mm CLR
12:30 89.8 °F /  32.1 °C 55.9 °F /  13.3 °C 30in /  1016.6hPa NE 12mph /  19.3km/h 19mph /  30.6km/h 32% 0in /  0.0mm CLR
12:35 89.8 °F /  32.1 °C 55.9 °F /  13.3 °C 30in /  1016.7hPa NE 12mph /  19.3km/h 21mph /  33.8km/h 32% 0in /  0.0mm CLR
12:40 90.1 °F /  32.3 °C 56.3 °F /  13.5 °C 30in /  1016.7hPa NE 12mph /  19.3km/h 21mph /  33.8km/h 32% 0in /  0.0mm CLR
12:45 90 °F /  32.2 °C 56.1 °F /  13.4 °C 30in /  1016.7hPa NE 12mph /  19.3km/h 21mph /  33.8km/h 32% 0in /  0.0mm CLR
12:50 89.6 °F /  32.0 °C 56.7 °F /  13.7 °C 30in /  1016.7hPa NE 13mph /  20.9km/h 21mph /  33.8km/h 33% 0in /  0.0mm CLR
12:55 89.8 °F /  32.1 °C 56.8 °F /  13.8 °C 30in /  1016.7hPa ENE 13mph /  20.9km/h 20mph /  32.2km/h 33% 0in /  0.0mm CLR
13:00 90 °F /  32.2 °C 56.1 °F /  13.4 °C 30in /  1016.7hPa NE 10mph /  16.1km/h 24mph /  38.6km/h 32% 0in /  0.0mm CLR
13:05 90 °F /  32.2 °C 56.1 °F /  13.4 °C 30in /  1016.8hPa NE 10mph /  16.1km/h 18mph /  29.0km/h 32% 0in /  0.0mm CLR
13:10 90 °F /  32.2 °C 57.7 °F /  14.3 °C 30in /  1016.8hPa NE 13mph /  20.9km/h 24mph /  38.6km/h 34% 0in /  0.0mm CLR
13:14 89.2 °F /  31.8 °C 58.8 °F /  14.9 °C 30in /  1016.8hPa ENE 12.3mph /  19.8km/h 15mph /  24.1km/h 36% 0in /  0.0mm CLR
13:20 89.4 °F /  31.9 °C 59 °F /  15.0 °C 30in /  1016.7hPa NE 13mph /  20.9km/h 21mph /  33.8km/h 36% 0in /  0.0mm CLR
13:25 89.4 °F /  31.9 °C 59.7 °F /  15.4 °C 30in /  1016.7hPa NE 13mph /  20.9km/h 21mph /  33.8km/h 37% 0in /  0.0mm CLR
13:29 89.4 °F /  31.9 °C 59.7 °F /  15.4 °C 30in /  1016.7hPa East 12.5mph /  20.1km/h 18.4mph /  29.6km/h 37% 0in /  0.0mm CLR
13:35 89.4 °F /  31.9 °C 59.7 °F /  15.4 °C 30in /  1016.6hPa NE 13mph /  20.9km/h 19mph /  30.6km/h 37% 0in /  0.0mm CLR
13:40 89.4 °F /  31.9 °C 59.7 °F /  15.4 °C 30in /  1016.6hPa NE 14mph /  22.5km/h 22mph /  35.4km/h 37% 0in /  0.0mm CLR
13:45 89.4 °F /  31.9 °C 60.4 °F /  15.8 °C 30in /  1016.6hPa NE 14mph /  22.5km/h 22mph /  35.4km/h 38% 0in /  0.0mm CLR
13:49 90 °F /  32.2 °C 60.3 °F /  15.7 °C 30in /  1016.5hPa NE 12.3mph /  19.8km/h 18.4mph /  29.6km/h 37% 0in /  0.0mm CLR
13:55 89.4 °F /  31.9 °C 59.7 °F /  15.4 °C 30in /  1016.5hPa NE 13mph /  20.9km/h 24mph /  38.6km/h 37% 0in /  0.0mm CLR
14:00 89.8 °F /  32.1 °C 60.8 °F /  16.0 °C 30in /  1016.5hPa NE 13mph /  20.9km/h 22mph /  35.4km/h 38% 0in /  0.0mm CLR
14:05 90 °F /  32.2 °C 60.3 °F /  15.7 °C 30in /  1016.5hPa NE 13mph /  20.9km/h 21mph /  33.8km/h 37% 0in /  0.0mm CLR
14:10 90.1 °F /  32.3 °C 60.4 °F /  15.8 °C 30in /  1016.5hPa NE 12mph /  19.3km/h 19mph /  30.6km/h 37% 0in /  0.0mm CLR
14:14 90.1 °F /  32.3 °C 59.5 °F /  15.3 °C 30in /  1016.5hPa NE 11.4mph /  18.3km/h 16.1mph /  25.9km/h 36% 0in /  0.0mm CLR
14:20 90.1 °F /  32.3 °C 59.5 °F /  15.3 °C 30in /  1016.4hPa NE 13mph /  20.9km/h 22mph /  35.4km/h 36% 0in /  0.0mm CLR
14:25 90.7 °F /  32.6 °C 60.1 °F /  15.6 °C 30in /  1016.4hPa NE 13mph /  20.9km/h 19mph /  30.6km/h 36% 0in /  0.0mm CLR
14:30 90.7 °F /  32.6 °C 60.1 °F /  15.6 °C 30in /  1016.4hPa ENE 10mph /  16.1km/h 20mph /  32.2km/h 36% 0in /  0.0mm CLR
14:34 90.5 °F /  32.5 °C 59.9 °F /  15.5 °C 30in /  1016.4hPa ESE 10.2mph /  16.4km/h 21.9mph /  35.2km/h 36% 0in /  0.0mm CLR
14:40 90.3 °F /  32.4 °C 59 °F /  15.0 °C 30in /  1016.4hPa ENE 12mph /  19.3km/h 18mph /  29.0km/h 35% 0in /  0.0mm CLR
14:45 90.3 °F /  32.4 °C 59.7 °F /  15.4 °C 30in /  1016.4hPa ENE 12mph /  19.3km/h 21mph /  33.8km/h 36% 0in /  0.0mm CLR
14:50 90.7 °F /  32.6 °C 60.1 °F /  15.6 °C 30in /  1016.3hPa NE 12mph /  19.3km/h 19mph /  30.6km/h 36% 0in /  0.0mm CLR
14:55 90.7 °F /  32.6 °C 59.4 °F /  15.2 °C 30in /  1016.3hPa ENE 12mph /  19.3km/h 21mph /  33.8km/h 35% 0in /  0.0mm CLR
15:00 90.7 °F /  32.6 °C 59.4 °F /  15.2 °C 30in /  1016.3hPa NE 12mph /  19.3km/h 20mph /  32.2km/h 35% 0in /  0.0mm CLR
15:05 90.9 °F /  32.7 °C 60.3 °F /  15.7 °C 30in /  1016.3hPa ENE 12mph /  19.3km/h 19mph /  30.6km/h 36% 0in /  0.0mm CLR
15:10 91 °F /  32.8 °C 59.5 °F /  15.3 °C 30in /  1016.3hPa ENE 10mph /  16.1km/h 20mph /  32.2km/h 35% 0in /  0.0mm CLR
15:15 90.9 °F /  32.7 °C 60.3 °F /  15.7 °C 30in /  1016.3hPa ENE 10mph /  16.1km/h 22mph /  35.4km/h 36% 0in /  0.0mm CLR
15:20 90.5 °F /  32.5 °C 59.9 °F /  15.5 °C 30in /  1016.3hPa ENE 12mph /  19.3km/h 21mph /  33.8km/h 36% 0in /  0.0mm CLR
15:24 90.7 °F /  32.6 °C 60.1 °F /  15.6 °C 30in /  1016.3hPa SE 11.4mph /  18.3km/h 18.4mph /  29.6km/h 36% 0in /  0.0mm CLR
15:29 90.5 °F /  32.5 °C 60.6 °F /  15.9 °C 30in /  1016.3hPa ENE 12.3mph /  19.8km/h 20.8mph /  33.5km/h 37% 0in /  0.0mm CLR
15:34 90.7 °F /  32.6 °C 61.5 °F /  16.4 °C 30in /  1016.1hPa ENE 12.3mph /  19.8km/h 17.8mph /  28.6km/h 38% 0in /  0.0mm CLR
15:40 91 °F /  32.8 °C 61.2 °F /  16.2 °C 30in /  1016.1hPa ENE 9mph /  14.5km/h 18mph /  29.0km/h 37% 0in /  0.0mm CLR
15:45 90.5 °F /  32.5 °C 61.3 °F /  16.3 °C 30in /  1016.1hPa ENE 9.7mph /  15.6km/h 23mph /  37.0km/h 38% 0in /  0.0mm CLR
15:50 90.5 °F /  32.5 °C 61.3 °F /  16.3 °C 30in /  1016.0hPa ENE 12mph /  19.3km/h 19mph /  30.6km/h 38% 0in /  0.0mm CLR
15:55 90.3 °F /  32.4 °C 62.1 °F /  16.7 °C 30in /  1016.0hPa ENE 12mph /  19.3km/h 22mph /  35.4km/h 39% 0in /  0.0mm CLR
16:00 90.7 °F /  32.6 °C 62.4 °F /  16.9 °C 30in /  1016.0hPa NE 12mph /  19.3km/h 20mph /  32.2km/h 39% 0in /  0.0mm CLR
16:05 90.9 °F /  32.7 °C 62.4 °F /  16.9 °C 30in /  1016.0hPa NE 12mph /  19.3km/h 22mph /  35.4km/h 39% 0in /  0.0mm CLR
16:10 90.3 °F /  32.4 °C 62.8 °F /  17.1 °C 30in /  1016.0hPa NE 10mph /  16.1km/h 21mph /  33.8km/h 40% 0in /  0.0mm CLR
16:15 90.3 °F /  32.4 °C 62.8 °F /  17.1 °C 30in /  1016.0hPa ENE 10mph /  16.1km/h 17mph /  27.4km/h 40% 0in /  0.0mm CLR
16:19 90.1 °F /  32.3 °C 61.9 °F /  16.6 °C 30in /  1015.9hPa NE 11.8mph /  19.0km/h 20.7mph /  33.3km/h 39% 0in /  0.0mm CLR
16:24 90.3 °F /  32.4 °C 61.3 °F /  16.3 °C 30in /  1015.9hPa NE 11.8mph /  19.0km/h 24.2mph /  38.9km/h 38% 0in /  0.0mm CLR
16:30 90.3 °F /  32.4 °C 61.2 °F /  16.2 °C 30in /  1015.9hPa NE 12mph /  19.3km/h 22mph /  35.4km/h 38% 0in /  0.0mm CLR
16:35 90.3 °F /  32.4 °C 58.8 °F /  14.9 °C 30in /  1015.8hPa NE 12mph /  19.3km/h 22mph /  35.4km/h 35% 0in /  0.0mm CLR
16:39 90 °F /  32.2 °C 59.4 °F /  15.2 °C 30in /  1015.8hPa ENE 14.7mph /  23.7km/h 21.9mph /  35.2km/h 36% 0in /  0.0mm CLR
16:44 90.1 °F /  32.3 °C 59.5 °F /  15.3 °C 30in /  1015.8hPa NE 14.7mph /  23.7km/h 26.5mph /  42.6km/h 36% 0in /  0.0mm CLR
16:50 90 °F /  32.2 °C 60.3 °F /  15.7 °C 30in /  1015.9hPa NE 13mph /  20.9km/h 27mph /  43.4km/h 37% 0in /  0.0mm CLR
16:55 89.8 °F /  32.1 °C 60.1 °F /  15.6 °C 30in /  1015.9hPa NE 13mph /  20.9km/h 27mph /  43.4km/h 37% 0in /  0.0mm CLR
16:59 90 °F /  32.2 °C 60.3 °F /  15.7 °C 30in /  1015.9hPa NE 13.7mph /  22.0km/h 20.7mph /  33.3km/h 37% 0in /  0.0mm CLR
17:05 90 °F /  32.2 °C 60.3 °F /  15.7 °C 30in /  1015.9hPa NE 14mph /  22.5km/h 22mph /  35.4km/h 37% 0in /  0.0mm CLR
17:10 90 °F /  32.2 °C 60.3 °F /  15.7 °C 30in /  1015.9hPa NE 13mph /  20.9km/h 23mph /  37.0km/h 37% 0in /  0.0mm CLR
17:14 90.1 °F /  32.3 °C 60.4 °F /  15.8 °C 30in /  1015.9hPa NE 13mph /  20.9km/h 17.3mph /  27.8km/h 37% 0in /  0.0mm CLR
17:19 90 °F /  32.2 °C 60.3 °F /  15.7 °C 30in /  1015.8hPa ENE 12.5mph /  20.1km/h 19.2mph /  30.9km/h 37% 0in /  0.0mm CLR
17:25 89.8 °F /  32.1 °C 60.1 °F /  15.6 °C 30in /  1015.8hPa NE 13mph /  20.9km/h 24mph /  38.6km/h 37% 0in /  0.0mm CLR
17:29 89.4 °F /  31.9 °C 59.7 °F /  15.4 °C 30in /  1015.8hPa East 14mph /  22.5km/h 21.9mph /  35.2km/h 37% 0in /  0.0mm CLR
17:34 89.4 °F /  31.9 °C 59 °F /  15.0 °C 30in /  1015.8hPa NE 14mph /  22.5km/h 19.6mph /  31.5km/h 36% 0in /  0.0mm CLR
17:39 89.2 °F /  31.8 °C 59.5 °F /  15.3 °C 30in /  1015.8hPa NE 15.2mph /  24.5km/h 24.2mph /  38.9km/h 37% 0in /  0.0mm CLR
17:45 89.4 °F /  31.9 °C 59.7 °F /  15.4 °C 30in /  1015.8hPa NE 15mph /  24.1km/h 22mph /  35.4km/h 37% 0in /  0.0mm CLR
17:49 89.4 °F /  31.9 °C 59.7 °F /  15.4 °C 30in /  1015.9hPa ENE 13.5mph /  21.7km/h 18.4mph /  29.6km/h 37% 0in /  0.0mm CLR
17:54 90 °F /  32.2 °C 61 °F /  16.1 °C 30in /  1015.9hPa North 13.5mph /  21.7km/h 13.8mph /  22.2km/h 38% 0in /  0.0mm CLR
17:59 90 °F /  32.2 °C 59.4 °F /  15.2 °C 30in /  1015.9hPa NNE 10mph /  16.1km/h 18.5mph /  29.8km/h 36% 0in /  0.0mm CLR
18:04 89.4 °F /  31.9 °C 60.4 °F /  15.8 °C 30in /  1015.7hPa NNE 10mph /  16.1km/h 15.6mph /  25.1km/h 38% 0in /  0.0mm CLR
18:10 89.6 °F /  32.0 °C 60.6 °F /  15.9 °C 30in /  1015.7hPa NE 13mph /  20.9km/h 21mph /  33.8km/h 38% 0in /  0.0mm CLR
18:14 89.2 °F /  31.8 °C 60.3 °F /  15.7 °C 30in /  1015.7hPa ENE 12.5mph /  20.1km/h 25.3mph /  40.7km/h 38% 0in /  0.0mm CLR
18:19 89.2 °F /  31.8 °C 60.3 °F /  15.7 °C 30in /  1015.4hPa NNE 13mph /  20.9km/h 19.2mph /  30.9km/h 38% 0in /  0.0mm CLR
18:24 89.1 °F /  31.7 °C 60.1 °F /  15.6 °C 30in /  1015.4hPa North 13mph /  20.9km/h 26.5mph /  42.6km/h 38% 0in /  0.0mm CLR
18:29 88.9 °F /  31.6 °C 60.1 °F /  15.6 °C 30in /  1015.4hPa ENE 14.7mph /  23.7km/h 21.9mph /  35.2km/h 38% 0in /  0.0mm CLR
18:35 88.5 °F /  31.4 °C 60.4 °F /  15.8 °C 30in /  1015.3hPa NE 15mph /  24.1km/h 23mph /  37.0km/h 39% 0in /  0.0mm CLR
18:40 88.5 °F /  31.4 °C 60.4 °F /  15.8 °C 30in /  1015.3hPa NE 15mph /  24.1km/h 26mph /  41.8km/h 39% 0in /  0.0mm CLR
18:44 88.3 °F /  31.3 °C 61 °F /  16.1 °C 30in /  1015.3hPa NE 15.2mph /  24.5km/h 25.3mph /  40.7km/h 40% 0in /  0.0mm CLR
18:50 88.2 °F /  31.2 °C 60.8 °F /  16.0 °C 30in /  1015.2hPa NE 15mph /  24.1km/h 24mph /  38.6km/h 40% 0in /  0.0mm CLR
18:55 88 °F /  31.1 °C 60.6 °F /  15.9 °C 30in /  1015.2hPa NE 15mph /  24.1km/h 23mph /  37.0km/h 40% 0in /  0.0mm CLR
18:59 88 °F /  31.1 °C 61.3 °F /  16.3 °C 30in /  1015.2hPa NE 13.7mph /  22.0km/h 20.7mph /  33.3km/h 41% 0in /  0.0mm CLR
19:04 87.8 °F /  31.0 °C 61.2 °F /  16.2 °C 30in /  1015.3hPa ENE 13.7mph /  22.0km/h 18.4mph /  29.6km/h 41% 0in /  0.0mm CLR
19:09 87.6 °F /  30.9 °C 61 °F /  16.1 °C 30in /  1015.3hPa South 13.7mph /  22.0km/h 19.2mph /  30.9km/h 41% 0in /  0.0mm CLR
19:15 87.4 °F /  30.8 °C 61.5 °F /  16.4 °C 30in /  1015.3hPa NE 14mph /  22.5km/h 26mph /  41.8km/h 42% 0in /  0.0mm CLR
19:19 87.4 °F /  30.8 °C 61.5 °F /  16.4 °C 30in /  1015.4hPa NNE 14.5mph /  23.3km/h 17.3mph /  27.8km/h 42% 0in /  0.0mm CLR
19:24 87.3 °F /  30.7 °C 61.3 °F /  16.3 °C 30in /  1015.4hPa ENE 14.5mph /  23.3km/h 18.4mph /  29.6km/h 42% 0in /  0.0mm CLR
19:30 87.3 °F /  30.7 °C 61.3 °F /  16.3 °C 30in /  1015.4hPa NE 13mph /  20.9km/h 20mph /  32.2km/h 42% 0in /  0.0mm CLR
19:34 87.3 °F /  30.7 °C 62.1 °F /  16.7 °C 30in /  1015.6hPa East 12.3mph /  19.8km/h 17.3mph /  27.8km/h 43% 0in /  0.0mm CLR
19:39 87.1 °F /  30.6 °C 61.9 °F /  16.6 °C 30in /  1015.6hPa North 10.7mph /  17.2km/h 14mph /  22.5km/h 43% 0in /  0.0mm CLR
19:44 87.1 °F /  30.6 °C 62.4 °F /  16.9 °C 30in /  1015.6hPa ENE 10.7mph /  17.2km/h 12.7mph /  20.4km/h 44% 0in /  0.0mm CLR
19:49 87.1 °F /  30.6 °C 61.9 °F /  16.6 °C 30in /  1015.6hPa NNE 10.7mph /  17.2km/h 20.1mph /  32.3km/h 43% 0in /  0.0mm CLR
19:54 86.7 °F /  30.4 °C 61.5 °F /  16.4 °C 30in /  1015.6hPa NE 10.7mph /  17.2km/h 15mph /  24.1km/h 43% 0in /  0.0mm CLR
19:59 86.5 °F /  30.3 °C 62.1 °F /  16.7 °C 30in /  1015.6hPa NE 12.5mph /  20.1km/h 18.4mph /  29.6km/h 44% 0in /  0.0mm CLR
20:04 86.4 °F /  30.2 °C 61.9 °F /  16.6 °C 30in /  1015.9hPa ENE 12.5mph /  20.1km/h 15mph /  24.1km/h 44% 0in /  0.0mm CLR
20:09 86.4 °F /  30.2 °C 61.9 °F /  16.6 °C 30in /  1015.9hPa NE 10.7mph /  17.2km/h 17mph /  27.4km/h 44% 0in /  0.0mm CLR
20:14 86.4 °F /  30.2 °C 62.4 °F /  16.9 °C 30in /  1015.9hPa NE 10.7mph /  17.2km/h 15mph /  24.1km/h 45% 0in /  0.0mm CLR
20:20 86.4 °F /  30.2 °C 63.9 °F /  17.7 °C 30in /  1016.3hPa ENE 8mph /  12.9km/h 12mph /  19.3km/h 47% 0in /  0.0mm CLR
20:24 86.2 °F /  30.1 °C 63.7 °F /  17.6 °C 30in /  1016.3hPa NNE 8.5mph /  13.7km/h 12.3mph /  19.8km/h 47% 0in /  0.0mm CLR
20:29 85.8 °F /  29.9 °C 63.3 °F /  17.4 °C 30in /  1016.3hPa East 6.2mph /  10.0km/h 11.5mph /  18.5km/h 47% 0in /  0.0mm CLR
20:34 85.6 °F /  29.8 °C 63.7 °F /  17.6 °C 30in /  1016.6hPa ENE 6.2mph /  10.0km/h 10.4mph /  16.7km/h 48% 0in /  0.0mm CLR
20:39 85.5 °F /  29.7 °C 64 °F /  17.8 °C 30in /  1016.6hPa ENE 7.4mph /  11.9km/h 12.7mph /  20.4km/h 49% 0in /  0.0mm CLR
20:44 85.3 °F /  29.6 °C 64 °F /  17.8 °C 30in /  1016.6hPa NNE 7.4mph /  11.9km/h 6.9mph /  11.1km/h 49% 0in /  0.0mm CLR
20:49 85.1 °F /  29.5 °C 64.4 °F /  18.0 °C 30in /  1016.8hPa ESE 6.2mph /  10.0km/h 13.8mph /  22.2km/h 50% 0in /  0.0mm CLR
20:54 84.7 °F /  29.3 °C 64.6 °F /  18.1 °C 30in /  1016.8hPa NNE 6.2mph /  10.0km/h 15mph /  24.1km/h 51% 0in /  0.0mm CLR
20:59 84.6 °F /  29.2 °C 64.9 °F /  18.3 °C 30in /  1016.8hPa ENE 8.5mph /  13.7km/h 9.2mph /  14.8km/h 52% 0in /  0.0mm CLR
21:05 84.4 °F /  29.1 °C 64.8 °F /  18.2 °C 30in /  1016.9hPa ENE 8mph /  12.9km/h 14mph /  22.5km/h 52% 0in /  0.0mm CLR
21:09 84 °F /  28.9 °C 64.9 °F /  18.3 °C 30in /  1016.9hPa ENE 6.4mph /  10.3km/h 12.7mph /  20.4km/h 53% 0in /  0.0mm CLR
21:15 83.8 °F /  28.8 °C 65.5 °F /  18.6 °C 30in /  1016.9hPa NE 7mph /  11.3km/h 14mph /  22.5km/h 54% 0in /  0.0mm CLR
21:19 83.7 °F /  28.7 °C 65.8 °F /  18.8 °C 30in /  1017.1hPa East 8.1mph /  13.0km/h 10.4mph /  16.7km/h 55% 0in /  0.0mm CLR
21:24 83.5 °F /  28.6 °C 66 °F /  18.9 °C 30in /  1017.1hPa NE 8.1mph /  13.0km/h 15mph /  24.1km/h 56% 0in /  0.0mm CLR
21:30 83.1 °F /  28.4 °C 65.8 °F /  18.8 °C 30in /  1017.1hPa NE 8mph /  12.9km/h 12mph /  19.3km/h 56% 0in /  0.0mm CLR
21:34 82.9 °F /  28.3 °C 66.6 °F /  19.2 °C 30in /  1017.4hPa NE 7.6mph /  12.2km/h 9.2mph /  14.8km/h 58% 0in /  0.0mm CLR
21:40 82.8 °F /  28.2 °C 66.6 °F /  19.2 °C 30in /  1017.4hPa NE 7mph /  11.3km/h 16mph /  25.7km/h 58% 0in /  0.0mm CLR
21:45 82.6 °F /  28.1 °C 66.7 °F /  19.3 °C 30in /  1017.4hPa NE 7mph /  11.3km/h 10mph /  16.1km/h 59% 0in /  0.0mm CLR
21:50 82.4 °F /  28.0 °C 67.1 °F /  19.5 °C 30.1in /  1017.7hPa NE 5mph /  8.0km/h 8mph /  12.9km/h 60% 0in /  0.0mm CLR
21:54 82.2 °F /  27.9 °C 66.9 °F /  19.4 °C 30.1in /  1017.7hPa ENE 5.2mph /  8.4km/h 8.1mph /  13.0km/h 60% 0in /  0.0mm CLR
21:59 82 °F /  27.8 °C 67.3 °F /  19.6 °C 30.1in /  1017.7hPa NNE 5.2mph /  8.4km/h 8.1mph /  13.0km/h 61% 0in /  0.0mm CLR
22:04 81.9 °F /  27.7 °C 67.6 °F /  19.8 °C 30.1in /  1018.0hPa NE 5.2mph /  8.4km/h 9.2mph /  14.8km/h 62% 0in /  0.0mm CLR
22:09 81.7 °F /  27.6 °C 67.8 °F /  19.9 °C 30.1in /  1018.0hPa ENE 6.2mph /  10.0km/h 10.2mph /  16.4km/h 63% 0in /  0.0mm CLR
22:14 81.3 °F /  27.4 °C 68 °F /  20.0 °C 30.1in /  1018.0hPa NE 6.2mph /  10.0km/h 13.7mph /  22.0km/h 64% 0in /  0.0mm CLR
22:19 81.1 °F /  27.3 °C 68.4 °F /  20.2 °C 30.1in /  1018.3hPa ENE 6.9mph /  11.1km/h 12.7mph /  20.4km/h 65% 0in /  0.0mm CLR
22:24 81.1 °F /  27.3 °C 68.7 °F /  20.4 °C 30.1in /  1018.3hPa ENE 6.9mph /  11.1km/h 10.4mph /  16.7km/h 66% 0in /  0.0mm CLR
22:29 81 °F /  27.2 °C 68.5 °F /  20.3 °C 30.1in /  1018.3hPa NNE 8.1mph /  13.0km/h 11.5mph /  18.5km/h 66% 0in /  0.0mm CLR
22:34 80.8 °F /  27.1 °C 68.7 °F /  20.4 °C 30.1in /  1018.5hPa NE 8.1mph /  13.0km/h 13.8mph /  22.2km/h 67% 0in /  0.0mm CLR
22:39 80.6 °F /  27.0 °C 68.5 °F /  20.3 °C 30.1in /  1018.5hPa ENE 8.5mph /  13.7km/h 11.8mph /  19.0km/h 67% 0in /  0.0mm CLR
22:44 80.4 °F /  26.9 °C 68.9 °F /  20.5 °C 30.1in /  1018.5hPa North 8.5mph /  13.7km/h 9.2mph /  14.8km/h 68% 0in /  0.0mm CLR
22:49 80.4 °F /  26.9 °C 68.9 °F /  20.5 °C 30.1in /  1018.6hPa NE 6.9mph /  11.1km/h 6.9mph /  11.1km/h 68% 0in /  0.0mm CLR
22:55 80.4 °F /  26.9 °C 69.3 °F /  20.7 °C 30.1in /  1018.6hPa NE 6.9mph /  11.1km/h 11.5mph /  18.5km/h 69% 0in /  0.0mm CLR
22:59 80.2 °F /  26.8 °C 69.1 °F /  20.6 °C 30.1in /  1018.6hPa NE 6.2mph /  10.0km/h 9.2mph /  14.8km/h 69% 0in /  0.0mm CLR
23:04 80.1 °F /  26.7 °C 69.1 °F /  20.6 °C 30.1in /  1018.8hPa NE 6.2mph /  10.0km/h 10.4mph /  16.7km/h 69% 0in /  0.0mm CLR
23:09 80.1 °F /  26.7 °C 69.1 °F /  20.6 °C 30.1in /  1018.8hPa NE 6.2mph /  10.0km/h 6.9mph /  11.1km/h 69% 0in /  0.0mm CLR
23:14 80.1 °F /  26.7 °C 69.4 °F /  20.8 °C 30.1in /  1018.8hPa NE 6.2mph /  10.0km/h 6.2mph /  10.0km/h 70% 0in /  0.0mm CLR
23:19 79.9 °F /  26.6 °C 69.3 °F /  20.7 °C 30.1in /  1018.8hPa ENE 5.2mph /  8.4km/h 9.2mph /  14.8km/h 70% 0in /  0.0mm CLR
23:24 79.9 °F /  26.6 °C 69.3 °F /  20.7 °C 30.1in /  1018.8hPa NNE 5.2mph /  8.4km/h 6.9mph /  11.1km/h 70% 0in /  0.0mm CLR
23:29 79.9 °F /  26.6 °C 68.7 °F /  20.4 °C 30.1in /  1018.8hPa ENE 5.4mph /  8.7km/h 6.4mph /  10.3km/h 69% 0in /  0.0mm CLR
23:34 79.9 °F /  26.6 °C 68.7 °F /  20.4 °C 30.1in /  1019.0hPa NE 5.4mph /  8.7km/h 6.9mph /  11.1km/h 69% 0in /  0.0mm CLR
23:39 79.9 °F /  26.6 °C 68.7 °F /  20.4 °C 30.1in /  1019.0hPa NE 4.7mph /  7.6km/h 6.9mph /  11.1km/h 69% 0in /  0.0mm CLR
23:44 79.9 °F /  26.6 °C 68.4 °F /  20.2 °C 30.1in /  1019.0hPa NE 4.7mph /  7.6km/h 8.1mph /  13.0km/h 68% 0in /  0.0mm CLR
23:49 79.9 °F /  26.6 °C 67.8 °F /  19.9 °C 30.1in /  1019.1hPa NNE 5.4mph /  8.7km/h 6.9mph /  11.1km/h 67% 0in /  0.0mm CLR
23:54 79.9 °F /  26.6 °C 67.5 °F /  19.7 °C 30.1in /  1019.1hPa NNE 5.4mph /  8.7km/h 9.2mph /  14.8km/h 66% 0in /  0.0mm CLR
23:59 79.9 °F /  26.6 °C 67.5 °F /  19.7 °C 30.1in /  1019.1hPa NE 5.9mph /  9.5km/h 6.2mph /  10.0km/h 66% 0in /  0.0mm CLR
Murcia-Puente Tocinos, España
Compliments of Weather Underground - 2.75 mb

La estación de MeteoMurcia.com, publica sus datos en los siguientes proyectos:

Weather Underground PWS IMURCIAP2 Meteoclimatic www.awekas.at

W3Counter
Web Analytics